createdAt,value
2018-08-20T00:00:03.979Z,6.93
2018-08-20T00:02:37.705Z,7.37
2018-08-20T00:05:07.018Z,7.03
2018-08-20T00:07:35.164Z,6.97
2018-08-20T00:10:03.638Z,7.20
2018-08-20T00:12:32.874Z,6.20
2018-08-20T00:15:01.308Z,7.77
2018-08-20T00:17:29.452Z,7.10
2018-08-20T00:19:57.922Z,6.30
2018-08-20T00:22:26.465Z,6.80
2018-08-20T00:25:08.807Z,7.60
2018-08-20T00:27:36.977Z,6.17
2018-08-20T00:30:06.728Z,5.90
2018-08-20T00:32:35.593Z,7.10
2018-08-20T00:35:04.080Z,7.57
2018-08-20T00:37:32.640Z,6.80
2018-08-20T00:40:01.058Z,7.03
2018-08-20T00:42:29.546Z,7.13
2018-08-20T00:44:57.724Z,7.07
2018-08-20T00:47:26.260Z,6.73
2018-08-20T00:49:54.433Z,7.20
2018-08-20T00:52:22.674Z,6.90
2018-08-20T00:54:50.701Z,6.83
2018-08-20T00:57:18.871Z,6.70
2018-08-20T00:59:47.112Z,6.97
2018-08-20T01:02:18.625Z,7.17
2018-08-20T01:04:46.840Z,7.27
2018-08-20T01:07:15.065Z,6.43
2018-08-20T01:09:43.344Z,7.00
2018-08-20T01:12:11.836Z,6.70
2018-08-20T01:14:40.356Z,6.93
2018-08-20T01:17:08.525Z,6.67
2018-08-20T01:19:36.686Z,6.93
2018-08-20T01:22:05.348Z,7.20
2018-08-20T01:24:33.718Z,7.17
2018-08-20T01:27:02.185Z,6.57
2018-08-20T01:29:30.634Z,7.13
2018-08-20T01:31:59.053Z,6.77
2018-08-20T01:34:27.489Z,7.20
2018-08-20T01:36:55.783Z,6.70
2018-08-20T01:39:23.950Z,6.90
2018-08-20T01:41:52.114Z,6.63
2018-08-20T01:44:20.311Z,5.83
2018-08-20T01:46:48.919Z,6.53
2018-08-20T01:49:17.099Z,5.87
2018-08-20T01:51:45.792Z,6.67
2018-08-20T01:54:14.300Z,6.60
2018-08-20T01:56:42.633Z,6.90
2018-08-20T01:59:11.280Z,6.13
2018-08-20T02:01:39.758Z,6.60
2018-08-20T02:04:08.177Z,6.40
2018-08-20T02:06:36.615Z,7.10
2018-08-20T02:09:05.872Z,6.50
2018-08-20T02:11:34.074Z,6.40
2018-08-20T02:14:02.255Z,6.00
2018-08-20T02:16:30.885Z,6.40
2018-08-20T02:18:59.209Z,6.53
2018-08-20T02:21:27.375Z,7.00
2018-08-20T02:23:55.295Z,6.47
2018-08-20T02:26:23.448Z,6.53
2018-08-20T02:28:51.649Z,6.40
2018-08-20T02:31:19.821Z,6.10
2018-08-20T02:33:48.013Z,6.70
2018-08-20T02:36:16.653Z,6.10
2018-08-20T02:38:45.093Z,6.60
2018-08-20T02:41:13.282Z,5.97
2018-08-20T02:43:41.438Z,6.57
2018-08-20T02:46:09.604Z,5.80
2018-08-20T02:48:38.170Z,6.10
2018-08-20T02:51:06.666Z,6.07
2018-08-20T02:53:35.177Z,6.10
2018-08-20T02:56:03.319Z,5.77
2018-08-20T02:58:31.471Z,5.80
2018-08-20T03:00:59.625Z,6.13
2018-08-20T03:03:27.765Z,6.33
2018-08-20T03:05:55.905Z,5.60
2018-08-20T03:08:24.056Z,5.93
2018-08-20T03:10:52.229Z,6.30
2018-08-20T03:13:20.401Z,5.40
2018-08-20T03:15:48.573Z,5.70
2018-08-20T03:18:16.709Z,5.57
2018-08-20T03:20:44.854Z,5.50
2018-08-20T03:23:13.016Z,5.37
2018-08-20T03:25:41.170Z,5.80
2018-08-20T03:28:09.300Z,6.17
2018-08-20T03:30:37.446Z,6.00
2018-08-20T03:33:05.621Z,6.77
2018-08-20T03:35:33.784Z,6.47
2018-08-20T03:38:01.898Z,6.20
2018-08-20T03:40:30.044Z,5.63
2018-08-20T03:42:58.215Z,5.90
2018-08-20T03:45:26.111Z,6.40
2018-08-20T03:47:54.255Z,6.07
2018-08-20T03:50:22.389Z,6.23
2018-08-20T03:52:50.517Z,4.93
2018-08-20T03:55:18.417Z,6.30
2018-08-20T03:57:46.581Z,6.50
2018-08-20T04:00:14.704Z,6.27
2018-08-20T04:02:42.887Z,6.80
2018-08-20T04:05:11.037Z,7.50
2018-08-20T04:07:39.214Z,7.37
2018-08-20T04:10:07.364Z,6.73
2018-08-20T04:12:35.537Z,7.00
2018-08-20T04:15:03.709Z,8.40
2018-08-20T04:17:31.889Z,8.60
2018-08-20T04:20:00.058Z,8.13
2018-08-20T04:22:28.209Z,8.83
2018-08-20T04:24:56.348Z,8.70
2018-08-20T04:27:24.245Z,6.80
2018-08-20T04:29:52.405Z,7.37
2018-08-20T04:32:20.561Z,6.67
2018-08-20T04:34:48.721Z,6.73
2018-08-20T04:37:16.619Z,7.30
2018-08-20T04:39:44.773Z,5.90
2018-08-20T04:42:12.944Z,6.57
2018-08-20T04:44:41.138Z,7.60
2018-08-20T04:47:09.281Z,6.70
2018-08-20T04:49:37.417Z,7.70
2018-08-20T04:52:05.590Z,7.10
2018-08-20T04:54:33.725Z,7.37
2018-08-20T04:57:01.645Z,7.80
2018-08-20T04:59:29.784Z,6.87
2018-08-20T05:01:57.921Z,7.33
2018-08-20T05:04:26.073Z,8.83
2018-08-20T05:06:54.262Z,10.67
2018-08-20T05:09:22.405Z,9.37
2018-08-20T05:11:50.590Z,10.13
2018-08-20T05:14:18.479Z,9.10
2018-08-20T05:16:46.629Z,9.73
2018-08-20T05:19:14.779Z,9.50
2018-08-20T05:21:42.920Z,9.90
2018-08-20T05:24:10.829Z,9.33
2018-08-20T05:26:38.974Z,8.43
2018-08-20T05:29:07.139Z,9.40
2018-08-20T05:31:35.057Z,8.53
2018-08-20T05:34:03.204Z,8.57
2018-08-20T05:36:31.341Z,8.47
2018-08-20T05:38:59.480Z,9.03
2018-08-20T05:41:27.686Z,7.80
2018-08-20T05:43:55.564Z,9.80
2018-08-20T05:46:23.711Z,9.00
2018-08-20T05:48:51.853Z,8.27
2018-08-20T05:51:20.005Z,8.07
2018-08-20T05:53:48.164Z,7.90
2018-08-20T05:56:16.320Z,7.73
2018-08-20T05:58:44.501Z,8.33
2018-08-20T06:01:12.659Z,7.77
2018-08-20T06:03:40.813Z,7.87
2018-08-20T06:06:08.980Z,7.40
2018-08-20T06:08:37.131Z,7.80
2018-08-20T06:11:05.398Z,7.37
2018-08-20T06:13:33.580Z,7.10
2018-08-20T06:16:01.721Z,6.90
2018-08-20T06:18:29.676Z,6.63
2018-08-20T06:20:57.596Z,6.90
2018-08-20T06:23:25.765Z,6.10
2018-08-20T06:25:53.920Z,6.17
2018-08-20T06:28:21.843Z,6.70
2018-08-20T06:30:50.026Z,6.27
2018-08-20T06:33:18.265Z,7.37
2018-08-20T06:35:46.555Z,7.20
2018-08-20T06:38:14.705Z,6.67
2018-08-20T06:40:42.883Z,6.33
2018-08-20T06:43:11.029Z,6.70
2018-08-20T06:45:39.167Z,6.20
2018-08-20T06:48:07.424Z,6.00
2018-08-20T06:50:35.617Z,5.80
2018-08-20T06:53:03.801Z,5.50
2018-08-20T06:55:31.974Z,5.67
2018-08-20T06:58:01.897Z,5.80
2018-08-20T07:00:30.965Z,4.97
2018-08-20T07:02:59.125Z,5.60
2018-08-20T07:05:27.293Z,5.73
2018-08-20T07:07:55.526Z,6.33
2018-08-20T07:10:23.681Z,6.70
2018-08-20T07:12:51.612Z,6.20
2018-08-20T07:15:19.796Z,5.67
2018-08-20T07:17:52.595Z,5.70
2018-08-20T07:20:20.747Z,5.70
2018-08-20T07:22:48.912Z,5.37
2018-08-20T07:25:17.061Z,5.30
2018-08-20T07:27:45.223Z,5.67
2018-08-20T07:30:13.139Z,5.63
2018-08-20T07:32:41.074Z,5.10
2018-08-20T07:35:09.241Z,4.83
2018-08-20T07:37:37.457Z,5.00
2018-08-20T07:40:06.800Z,5.27
2018-08-20T07:42:34.766Z,5.33
2018-08-20T07:45:02.916Z,5.70
2018-08-20T07:47:31.095Z,5.57
2018-08-20T07:49:59.257Z,5.13
2018-08-20T07:52:27.385Z,5.10
2018-08-20T07:54:55.540Z,4.80
2018-08-20T07:57:23.715Z,4.50
2018-08-20T07:59:51.878Z,5.20
2018-08-20T08:02:20.019Z,4.93
2018-08-20T08:04:48.165Z,5.10
2018-08-20T08:07:16.064Z,4.77
2018-08-20T08:09:44.233Z,5.63
2018-08-20T08:12:12.378Z,6.10
2018-08-20T08:14:40.517Z,6.20
2018-08-20T08:17:08.735Z,6.00
2018-08-20T08:19:36.855Z,5.30
2018-08-20T08:22:04.970Z,5.83
2018-08-20T08:24:33.127Z,6.80
2018-08-20T08:27:01.298Z,5.43
2018-08-20T08:29:29.469Z,5.10
2018-08-20T08:31:57.630Z,5.67
2018-08-20T08:34:25.794Z,5.67
2018-08-20T08:36:53.966Z,4.93
2018-08-20T08:39:22.142Z,5.77
2018-08-20T08:41:50.321Z,5.60
2018-08-20T08:44:18.470Z,5.17
2018-08-20T08:46:47.262Z,5.90
2018-08-20T08:49:15.420Z,5.63
2018-08-20T08:51:43.573Z,5.30
2018-08-20T08:54:11.728Z,5.03
2018-08-20T08:56:39.885Z,5.60
2018-08-20T08:59:08.026Z,5.90
2018-08-20T09:01:36.181Z,5.70
2018-08-20T09:04:04.336Z,6.73
2018-08-20T09:06:32.508Z,5.47
2018-08-20T09:09:00.672Z,5.50
2018-08-20T09:11:28.816Z,5.00
2018-08-20T09:13:56.989Z,5.47
2018-08-20T09:16:25.130Z,5.10
2018-08-20T09:18:53.290Z,5.53
2018-08-20T09:21:21.478Z,5.13
2018-08-20T09:23:49.628Z,4.83
2018-08-20T09:26:17.788Z,4.67
2018-08-20T09:28:45.965Z,4.63
2018-08-20T09:31:17.342Z,4.60
2018-08-20T09:33:45.522Z,4.53
2018-08-20T09:36:13.522Z,4.63
2018-08-20T09:38:41.672Z,4.50
2018-08-20T09:41:09.923Z,4.10
2018-08-20T09:43:38.120Z,4.80
2018-08-20T09:46:06.416Z,4.67
2018-08-20T09:48:34.641Z,3.77
2018-08-20T09:51:02.789Z,4.10
2018-08-20T09:53:31.194Z,3.93
2018-08-20T09:55:59.315Z,3.27
2018-08-20T09:58:27.588Z,4.60
2018-08-20T10:00:55.720Z,4.10
2018-08-20T10:03:23.862Z,3.30
2018-08-20T10:05:52.019Z,3.80
2018-08-20T10:08:20.186Z,3.50
2018-08-20T10:10:48.313Z,3.70
2018-08-20T10:13:16.488Z,3.50
2018-08-20T10:15:44.633Z,3.50
2018-08-20T10:18:12.535Z,3.67
2018-08-20T10:20:40.675Z,3.47
2018-08-20T10:23:08.844Z,3.70
2018-08-20T10:25:36.980Z,3.93
2018-08-20T10:28:05.157Z,3.43
2018-08-20T10:30:33.333Z,3.70
2018-08-20T10:33:01.480Z,3.63
2018-08-20T10:35:30.622Z,3.47
2018-08-20T10:37:58.793Z,3.70
2018-08-20T10:40:26.899Z,3.30
2018-08-20T10:42:55.048Z,3.00
2018-08-20T10:45:28.534Z,2.87
2018-08-20T10:47:56.697Z,3.27
2018-08-20T10:50:24.826Z,3.20
2018-08-20T10:52:53.980Z,3.07
2018-08-20T10:55:22.218Z,3.03
2018-08-20T10:57:50.653Z,2.87
2018-08-20T11:00:19.000Z,3.20
2018-08-20T11:05:41.295Z,3.37
2018-08-20T11:08:09.603Z,3.23
2018-08-20T11:10:37.745Z,3.40
2018-08-20T11:13:06.005Z,2.97
2018-08-20T11:15:34.136Z,3.70
2018-08-20T11:18:02.060Z,3.33
2018-08-20T11:20:30.213Z,3.43
2018-08-20T11:22:58.125Z,3.13
2018-08-20T11:25:26.268Z,3.60
2018-08-20T11:27:54.425Z,3.60
2018-08-20T11:30:22.671Z,3.17
2018-08-20T11:32:50.778Z,3.43
2018-08-20T11:35:18.944Z,3.30
2018-08-20T11:37:47.101Z,3.63
2018-08-20T11:40:15.254Z,4.07
2018-08-20T11:42:43.397Z,3.57
2018-08-20T11:45:13.708Z,3.50
2018-08-20T11:47:42.255Z,2.87
2018-08-20T11:50:10.820Z,3.27
2018-08-20T11:52:39.665Z,3.80
2018-08-20T11:55:07.929Z,3.20
2018-08-20T11:57:36.223Z,3.17
2018-08-20T12:00:06.400Z,3.30
2018-08-20T12:02:34.560Z,2.53
2018-08-20T12:05:02.723Z,3.80
2018-08-20T12:07:30.902Z,3.37
2018-08-20T12:09:59.146Z,3.43
2018-08-20T12:12:27.310Z,3.10
2018-08-20T12:14:55.517Z,3.07
2018-08-20T12:17:23.731Z,3.20
2018-08-20T12:19:51.588Z,3.87
2018-08-20T12:22:19.760Z,3.10
2018-08-20T12:24:47.904Z,3.60
2018-08-20T12:27:16.079Z,3.93
2018-08-20T12:29:44.233Z,3.50
2018-08-20T12:32:12.389Z,3.47
2018-08-20T12:34:40.736Z,3.50
2018-08-20T12:37:08.977Z,3.17
2018-08-20T12:39:37.138Z,3.07
2018-08-20T12:42:05.390Z,3.00
2018-08-20T12:44:33.547Z,3.50
2018-08-20T12:47:01.689Z,4.03
2018-08-20T12:49:29.851Z,3.50
2018-08-20T12:51:58.008Z,3.40
2018-08-20T12:54:26.141Z,3.23
2018-08-20T12:56:54.279Z,3.40
2018-08-20T12:59:22.479Z,3.67
2018-08-20T13:01:50.602Z,3.50
2018-08-20T13:04:18.745Z,3.40
2018-08-20T13:06:46.895Z,3.57
2018-08-20T13:09:15.053Z,3.57
2018-08-20T13:11:43.245Z,3.33
2018-08-20T13:14:11.479Z,3.60
2018-08-20T13:16:39.609Z,3.70
2018-08-20T13:19:07.760Z,3.67
2018-08-20T13:21:35.915Z,3.90
2018-08-20T13:24:04.070Z,4.03
2018-08-20T13:26:32.233Z,3.20
2018-08-20T13:29:00.379Z,3.50
2018-08-20T13:31:28.514Z,4.10
2018-08-20T13:33:56.434Z,3.73
2018-08-20T13:36:25.041Z,4.37
2018-08-20T13:38:53.168Z,3.70
2018-08-20T13:41:21.961Z,4.37
2018-08-20T13:43:50.155Z,4.30
2018-08-20T13:46:18.631Z,3.73
2018-08-20T13:48:47.154Z,3.80
2018-08-20T13:51:15.378Z,3.90
2018-08-20T13:53:43.522Z,4.57
2018-08-20T13:56:11.672Z,4.00
2018-08-20T13:58:39.854Z,5.17
2018-08-20T14:01:07.998Z,4.17
2018-08-20T14:03:36.171Z,4.63
2018-08-20T14:06:04.080Z,4.03
2018-08-20T14:08:32.248Z,3.93
2018-08-20T14:11:00.420Z,4.60
2018-08-20T14:13:28.588Z,4.23
2018-08-20T14:15:56.825Z,4.53
2018-08-20T14:18:24.997Z,4.40
2018-08-20T14:21:02.922Z,4.53
2018-08-20T14:23:30.829Z,4.33
2018-08-20T14:25:58.994Z,4.33
2018-08-20T14:28:27.173Z,4.47
2018-08-20T14:30:55.348Z,4.67
2018-08-20T14:33:23.499Z,4.53
2018-08-20T14:35:51.639Z,4.43
2018-08-20T14:38:19.813Z,4.90
2018-08-20T14:40:47.952Z,4.03
2018-08-20T14:43:16.098Z,4.53
2018-08-20T14:45:49.761Z,5.30
2018-08-20T14:48:17.949Z,4.30
2018-08-20T14:50:47.223Z,4.40
2018-08-20T14:53:15.440Z,4.97
2018-08-20T14:55:43.534Z,4.60
2018-08-20T14:58:11.672Z,5.47
2018-08-20T15:00:39.849Z,4.63
2018-08-20T15:03:08.019Z,4.37
2018-08-20T15:05:36.212Z,4.50
2018-08-20T15:08:04.372Z,4.53
2018-08-20T15:10:32.512Z,4.20
2018-08-20T15:13:00.675Z,4.70
2018-08-20T15:15:28.951Z,4.37
2018-08-20T15:17:56.970Z,4.90
2018-08-20T15:20:25.126Z,4.60
2018-08-20T15:22:53.283Z,4.57
2018-08-20T15:25:21.413Z,4.87
2018-08-20T15:27:49.550Z,5.10
2018-08-20T15:30:17.696Z,5.10
2018-08-20T15:32:45.898Z,4.63
2018-08-20T15:35:13.988Z,4.77
2018-08-20T15:37:42.146Z,4.83
2018-08-20T15:40:10.293Z,4.50
2018-08-20T15:42:38.495Z,4.40
2018-08-20T15:45:06.670Z,4.77
2018-08-20T15:47:34.831Z,4.40
2018-08-20T15:50:03.068Z,5.20
2018-08-20T15:52:31.204Z,4.90
2018-08-20T15:54:59.352Z,4.80
2018-08-20T15:57:27.497Z,3.83
2018-08-20T15:59:55.666Z,4.60
2018-08-20T16:02:23.825Z,4.70
2018-08-20T16:04:51.965Z,4.40
2018-08-20T16:07:20.118Z,4.70
2018-08-20T16:09:48.416Z,4.40
2018-08-20T16:12:16.559Z,4.33
2018-08-20T16:14:44.457Z,4.60
2018-08-20T16:17:12.611Z,4.67
2018-08-20T16:19:40.565Z,4.70
2018-08-20T16:22:08.934Z,4.90
2018-08-20T16:24:37.081Z,4.43
2018-08-20T16:27:05.323Z,5.07
2018-08-20T16:29:33.261Z,5.50
2018-08-20T16:32:01.421Z,5.27
2018-08-20T16:34:29.938Z,5.27
2018-08-20T16:36:58.145Z,5.10
2018-08-20T16:39:26.374Z,5.60
2018-08-20T16:41:54.436Z,4.77
2018-08-20T16:44:22.609Z,4.70
2018-08-20T16:46:51.161Z,4.27
2018-08-20T16:49:19.329Z,4.70
2018-08-20T16:51:47.480Z,4.90
2018-08-20T16:54:15.646Z,5.20
2018-08-20T16:56:43.592Z,5.67
2018-08-20T16:59:11.762Z,4.90
2018-08-20T17:01:39.921Z,5.50
2018-08-20T17:04:22.537Z,5.10
2018-08-20T17:06:50.875Z,4.23
2018-08-20T17:09:19.021Z,4.53
2018-08-20T17:11:47.252Z,4.43
2018-08-20T17:14:15.426Z,6.03
2018-08-20T17:16:43.573Z,4.40
2018-08-20T17:19:11.762Z,4.60
2018-08-20T17:21:39.932Z,4.17
2018-08-20T17:24:08.096Z,4.67
2018-08-20T17:26:36.267Z,4.00
2018-08-20T17:29:08.874Z,5.20
2018-08-20T17:31:37.013Z,4.77
2018-08-20T17:34:05.200Z,4.60
2018-08-20T17:36:33.373Z,4.53
2018-08-20T17:39:01.901Z,4.50
2018-08-20T17:41:30.041Z,4.57
2018-08-20T17:43:57.950Z,3.87
2018-08-20T17:46:26.124Z,3.93
2018-08-20T17:48:54.261Z,3.73
2018-08-20T17:51:22.412Z,3.70
2018-08-20T17:53:52.763Z,3.50
2018-08-20T17:56:20.917Z,3.97
2018-08-20T17:58:52.252Z,3.47
2018-08-20T18:01:20.500Z,3.23
2018-08-20T18:03:48.820Z,3.30
2018-08-20T18:06:16.968Z,3.03
2018-08-20T18:08:44.905Z,3.27
2018-08-20T18:11:12.859Z,3.30
2018-08-20T18:13:44.372Z,3.50
2018-08-20T18:16:14.949Z,4.07
2018-08-20T18:18:44.698Z,12.10
2018-08-20T18:21:12.693Z,5.60
2018-08-20T18:23:40.644Z,3.87
2018-08-20T18:26:08.788Z,3.60
2018-08-20T18:28:42.544Z,5.43
2018-08-20T18:31:12.669Z,3.13
2018-08-20T18:33:41.050Z,3.63
2018-08-20T18:36:15.260Z,3.43
2018-08-20T18:38:50.160Z,3.20
2018-08-20T18:41:20.553Z,3.77
2018-08-20T18:43:48.524Z,3.57
2018-08-20T18:46:16.850Z,5.03
2018-08-20T18:48:45.013Z,4.60
2018-08-20T18:51:15.733Z,4.50
2018-08-20T18:53:44.149Z,3.07
2018-08-20T18:56:16.840Z,3.50
2018-08-20T18:58:45.671Z,3.30
2018-08-20T19:01:13.657Z,3.63
2018-08-20T19:03:45.763Z,3.57
2018-08-20T19:06:14.465Z,3.47
2018-08-20T19:08:42.850Z,3.67
2018-08-20T19:11:11.760Z,3.77
2018-08-20T19:13:40.090Z,3.70
2018-08-20T19:16:41.380Z,2.80
2018-08-20T19:19:09.518Z,3.30
2018-08-20T19:21:41.191Z,3.40
2018-08-20T19:24:09.951Z,3.23
2018-08-20T19:26:38.139Z,3.60
2018-08-20T19:29:20.926Z,3.87
2018-08-20T19:31:49.092Z,3.90
2018-08-20T19:34:17.264Z,3.57
2018-08-20T19:36:45.419Z,4.40
2018-08-20T19:39:13.565Z,4.00
2018-08-20T19:41:41.701Z,4.57
2018-08-20T19:44:09.866Z,4.53
2018-08-20T19:46:38.889Z,3.90
2018-08-20T19:49:10.238Z,3.73
2018-08-20T19:51:40.270Z,4.43
2018-08-20T19:54:10.102Z,4.17
2018-08-20T19:56:38.417Z,3.93
2018-08-20T19:59:06.555Z,4.40
2018-08-20T20:01:34.684Z,4.47
2018-08-20T20:04:02.876Z,4.57
2018-08-20T20:06:31.055Z,4.33
2018-08-20T20:09:06.869Z,4.10
2018-08-20T20:11:39.762Z,4.30
2018-08-20T20:14:07.936Z,4.37
2018-08-20T20:16:41.515Z,3.83
2018-08-20T20:19:10.331Z,4.70
2018-08-20T20:21:38.762Z,4.00
2018-08-20T20:24:07.405Z,4.20
2018-08-20T20:26:35.573Z,4.27
2018-08-20T20:29:04.152Z,4.30
2018-08-20T20:31:32.256Z,4.83
2018-08-20T20:34:00.453Z,4.23
2018-08-20T20:36:30.712Z,4.07
2018-08-20T20:38:58.913Z,4.87
2018-08-20T20:41:27.104Z,4.57
2018-08-20T20:43:55.274Z,4.40
2018-08-20T20:46:23.439Z,4.50
2018-08-20T20:48:51.611Z,4.73
2018-08-20T20:51:19.536Z,4.30
2018-08-20T20:53:48.020Z,4.50
2018-08-20T20:56:15.993Z,4.17
2018-08-20T20:58:43.919Z,4.43
2018-08-20T21:01:13.206Z,3.80
2018-08-20T21:03:41.341Z,4.63
2018-08-20T21:06:09.341Z,3.73
2018-08-20T21:08:42.804Z,4.10
2018-08-20T21:11:11.942Z,4.37
2018-08-20T21:13:40.206Z,4.17
2018-08-20T21:16:14.508Z,4.37
2018-08-20T21:18:44.617Z,4.60
2018-08-20T21:21:12.980Z,4.17
2018-08-20T21:23:41.597Z,5.07
2018-08-20T21:26:10.292Z,3.80
2018-08-20T21:28:44.673Z,4.23
2018-08-20T21:31:13.673Z,3.90
2018-08-20T21:33:43.385Z,4.00
2018-08-20T21:36:12.408Z,4.17
2018-08-20T21:38:42.689Z,4.10
2018-08-20T21:41:10.932Z,4.30
2018-08-20T21:43:43.578Z,4.00
2018-08-20T21:46:12.548Z,4.30
2018-08-20T21:48:42.989Z,4.77
2018-08-20T21:51:16.356Z,5.10
2018-08-20T21:53:44.492Z,4.80
2018-08-20T21:56:13.112Z,4.23
2018-08-20T21:58:42.413Z,4.10
2018-08-20T22:01:11.857Z,4.07
2018-08-20T22:03:42.660Z,4.60
2018-08-20T22:06:11.452Z,4.47
2018-08-20T22:08:39.755Z,4.73
2018-08-20T22:11:08.236Z,4.10
2018-08-20T22:13:36.407Z,4.20
2018-08-20T22:16:22.574Z,4.00
2018-08-20T22:18:57.192Z,4.80
2018-08-20T22:21:25.524Z,4.67
2018-08-20T22:23:59.055Z,4.20
2018-08-20T22:26:26.998Z,4.40
2018-08-20T22:28:55.258Z,4.90
2018-08-20T22:31:23.474Z,3.90
2018-08-20T22:33:57.950Z,3.83
2018-08-20T22:36:27.104Z,4.40
2018-08-20T22:38:57.232Z,4.63
2018-08-20T22:41:26.528Z,4.50
2018-08-20T22:43:54.696Z,4.30
2018-08-20T22:46:23.377Z,4.50
2018-08-20T22:48:55.269Z,4.03
2018-08-20T22:51:25.056Z,4.17
2018-08-20T22:53:54.661Z,4.87
2018-08-20T22:56:27.157Z,4.80
2018-08-20T22:58:58.461Z,4.60
2018-08-20T23:01:26.746Z,4.90
2018-08-20T23:03:54.933Z,4.03
2018-08-20T23:06:23.005Z,4.10
2018-08-20T23:08:51.173Z,4.60
2018-08-20T23:11:47.209Z,4.60
2018-08-20T23:14:15.382Z,4.37
2018-08-20T23:16:43.545Z,4.10
2018-08-20T23:19:11.717Z,4.23
2018-08-20T23:21:44.089Z,4.30
2018-08-20T23:24:13.199Z,4.80
2018-08-20T23:26:41.436Z,4.60
2018-08-20T23:29:09.844Z,4.20
2018-08-20T23:31:38.530Z,4.17
2018-08-20T23:34:08.033Z,5.30
2018-08-20T23:36:36.201Z,4.20
2018-08-20T23:39:07.015Z,4.67
2018-08-20T23:41:35.192Z,4.33
2018-08-20T23:44:03.429Z,4.10
2018-08-20T23:46:39.425Z,4.03
2018-08-20T23:49:07.602Z,4.60
2018-08-20T23:51:35.753Z,4.40
2018-08-20T23:54:03.938Z,4.57
2018-08-20T23:56:32.102Z,4.37
2018-08-20T23:59:00.512Z,4.37
